Thursday, September 20, 2018, 10:19 PM EDT
Back to Local

KDXR, Danbury Municipal Airport

Location: Danbury, CT, United States Lat: 41.367
Local Time: 10:19 PM EDT ( 2:19 GMT) Lon: -73.483
Time Zone: US/Eastern Elev: 459 ft

Show me the last for .
Show Decoded

2018-09-20 21:53 METAR KDXR 210153Z 14008KT 10SM OVC047 18/15 A3027 RMK AO2 SLP249 T01780150 =
2018-09-20 20:53 METAR KDXR 210053Z 14004KT 10SM FEW030 OVC048 18/15 A3027 RMK AO2 SLP248
                 T01830150 =
2018-09-20 19:53 METAR KDXR 202353Z 16003KT 10SM FEW037 OVC048 18/15 A3025 RMK AO2 SLP242
                 T01830150 10211 20183 51005 =
2018-09-20 18:53 METAR KDXR 202253Z 17004KT 10SM OVC048 19/16 A3025 RMK AO2 SLP241 T01890156 =
2018-09-20 17:53 METAR KDXR 202153Z 18004KT 10SM OVC046 19/15 A3024 RMK AO2 SLP238 T01940150 =
2018-09-20 16:53 METAR KDXR 202053Z 15004KT 10SM OVC044 20/14 A3023 RMK AO2 SLP236 T02000144
                 55006 =
2018-09-20 15:53 METAR KDXR 201953Z 00000KT 10SM BKN038 21/14 A3023 RMK AO2 SLP233 T02060139 =
2018-09-20 14:53 METAR KDXR 201853Z 00000KT 10SM FEW032 OVC050 21/14 A3024 RMK AO2 SLP235
                 T02110144 =
2018-09-20 13:53 METAR KDXR 201753Z VRB03KT 10SM OVC031 20/13 A3025 RMK AO2 SLP241 T02000128
                 10206 20156 58007 =
2018-09-20 12:53 METAR KDXR 201653Z 09005KT 10SM FEW039 OVC050 20/13 A3026 RMK AO2 SLP245
                 T02000128 =
2018-09-20 11:53 METAR KDXR 201553Z 08005KT 10SM SCT037 OVC050 19/13 A3027 RMK AO2 SLP246
                 T01940128 =
2018-09-20 10:53 METAR KDXR 201453Z 04005KT 10SM OVC035 18/13 A3027 RMK AO2 SLP250 T01780133
                 53018 =
2018-09-20 09:53 METAR KDXR 201353Z 09007KT 10SM OVC033 17/13 A3025 RMK AO2 SLP241 T01720133 =
2018-09-20 08:53 METAR KDXR 201253Z 07005KT 10SM OVC032 17/13 A3023 RMK AO2 SLP235 T01670128 =
2018-09-20 08:00 METAR KDXR 201200Z 08004KT 10SM OVC031 16/13 A3022 RMK AO2 T01560128 =
2018-09-20 07:53 METAR KDXR 201153Z 11003KT 10SM OVC029 16/13 A3022 RMK AO2 SLP232 T01560128
                 10172 20156 53027 =
2018-09-20 06:53 METAR KDXR 201053Z 08004KT 10SM OVC029 16/13 A3019 RMK AO2 SLP218 T01560128 =
2018-09-20 05:53 METAR KDXR 200953Z AUTO 09007KT 10SM SCT019 OVC024 16/13 A3016 RMK AO2 SLP211
                 T01610133 =
2018-09-20 04:53 METAR KDXR 200853Z AUTO 06005KT 10SM OVC020 16/14 A3014 RMK AO2 SLP204 T01610139
                 53007 =
2018-09-20 03:53 METAR KDXR 200753Z AUTO 10006KT 10SM FEW015 OVC025 17/14 A3013 RMK AO2 SLP199
                 T01670144 =
2018-09-20 02:53 METAR KDXR 200653Z AUTO 07004KT 10SM OVC017 17/14 A3012 RMK AO2 SLP197 T01670144
                 =
2018-09-20 01:53 METAR KDXR 200553Z AUTO VRB03KT 10SM OVC020 17/15 A3012 RMK AO2 SLP196 T01720150
                 10194 20172 51010 =
2018-09-20 01:23 METAR KDXR 200523Z AUTO 08004KT 10SM OVC017 17/16 A3011 RMK AO2 T01720156 =
2018-09-20 00:53 METAR KDXR 200453Z AUTO 08005KT 10SM OVC012 17/16 A3011 RMK AO2 SLP192 T01720156
                 402610156 =
2018-09-19 23:53 METAR KDXR 200353Z AUTO 10006KT 10SM OVC014 18/16 A3010 RMK AO2 SLP189 T01780161
                 =
2018-09-19 22:53 METAR KDXR 200253Z AUTO 13006KT 10SM OVC014 19/17 A3009 RMK AO2 SLP184 T01890172
                 51017 =

Support USWX by starting your Amazon purchase here.